createdAt,value
2022-11-17T00:00:21.105Z,7.48
2022-11-17T00:02:47.854Z,7.49
2022-11-17T00:05:14.637Z,7.49
2022-11-17T00:07:43.350Z,7.44
2022-11-17T00:10:09.800Z,7.50
2022-11-17T00:12:54.543Z,7.45
2022-11-17T00:15:20.936Z,7.46
2022-11-17T00:17:48.786Z,7.44
2022-11-17T00:20:34.051Z,7.52
2022-11-17T00:23:00.413Z,7.53
2022-11-17T00:25:26.799Z,7.42
2022-11-17T00:27:53.466Z,7.43
2022-11-17T00:30:39.813Z,7.48
2022-11-17T00:33:26.832Z,7.43
2022-11-17T00:35:54.159Z,7.52
2022-11-17T00:38:20.654Z,7.43
2022-11-17T00:40:47.036Z,7.44
2022-11-17T00:43:13.393Z,7.43
2022-11-17T00:45:39.746Z,7.45
2022-11-17T00:48:06.482Z,7.45
2022-11-17T00:50:32.829Z,7.37
2022-11-17T00:52:59.190Z,7.32
2022-11-17T00:55:25.623Z,7.33
2022-11-17T00:57:52.058Z,7.31
2022-11-17T01:00:21.122Z,7.37
2022-11-17T01:02:47.492Z,7.32
2022-11-17T01:05:13.841Z,7.35
2022-11-17T01:07:40.311Z,7.31
2022-11-17T01:10:07.218Z,7.29
2022-11-17T01:12:33.544Z,7.32
2022-11-17T01:14:59.931Z,7.33
2022-11-17T01:17:26.296Z,7.30
2022-11-17T01:19:52.658Z,7.36
2022-11-17T01:22:18.989Z,7.42
2022-11-17T01:24:45.341Z,7.39
2022-11-17T01:27:11.678Z,7.35
2022-11-17T01:29:38.044Z,7.38
2022-11-17T01:32:04.527Z,7.33
2022-11-17T01:34:31.002Z,7.38
2022-11-17T01:37:16.056Z,7.37
2022-11-17T01:39:42.497Z,7.25
2022-11-17T01:42:15.565Z,7.29
2022-11-17T01:44:41.856Z,7.30
2022-11-17T01:47:17.569Z,7.26
2022-11-17T01:49:44.972Z,7.23
2022-11-17T01:52:12.831Z,7.21
2022-11-17T01:54:41.774Z,7.27
2022-11-17T01:57:14.341Z,7.23
2022-11-17T01:59:45.738Z,7.24
2022-11-17T02:02:12.123Z,7.25
2022-11-17T02:04:44.386Z,7.20
2022-11-17T02:07:22.443Z,7.20
2022-11-17T02:09:49.537Z,7.22
2022-11-17T02:12:16.580Z,7.24
2022-11-17T02:14:42.938Z,7.28
2022-11-17T02:17:14.338Z,7.26
2022-11-17T02:19:42.936Z,7.30
2022-11-17T02:22:47.188Z,7.38
2022-11-17T02:25:31.514Z,7.29
2022-11-17T02:28:16.903Z,7.31
2022-11-17T02:30:56.237Z,7.32
2022-11-17T02:33:50.539Z,7.34
2022-11-17T02:36:20.558Z,7.30
2022-11-17T02:38:54.328Z,7.24
2022-11-17T02:41:37.645Z,7.24
2022-11-17T02:44:25.068Z,7.22
2022-11-17T02:47:02.745Z,7.19
2022-11-17T02:49:38.887Z,7.14
2022-11-17T02:52:07.945Z,7.35
2022-11-17T02:54:34.596Z,7.29
2022-11-17T02:57:01.301Z,7.22
2022-11-17T02:59:35.215Z,7.22
2022-11-17T03:02:23.923Z,7.26
2022-11-17T03:05:14.631Z,7.20
2022-11-17T03:07:53.111Z,7.26
2022-11-17T03:10:38.294Z,7.25
2022-11-17T03:13:24.359Z,7.17
2022-11-17T03:15:59.574Z,7.23
2022-11-17T03:18:42.706Z,7.27
2022-11-17T03:21:19.196Z,7.23
2022-11-17T03:24:00.721Z,7.18
2022-11-17T03:26:32.250Z,7.19
2022-11-17T03:29:01.926Z,7.24
2022-11-17T03:31:30.543Z,7.24
2022-11-17T03:33:59.398Z,7.29
2022-11-17T03:36:34.926Z,7.33
2022-11-17T03:39:35.814Z,7.27
2022-11-17T03:42:13.039Z,7.30
2022-11-17T03:44:42.084Z,7.32
2022-11-17T03:47:12.496Z,7.21
2022-11-17T03:49:55.403Z,7.24
2022-11-17T03:52:21.964Z,7.23
2022-11-17T03:54:48.407Z,7.26
2022-11-17T03:57:22.332Z,7.28
2022-11-17T04:00:11.618Z,7.28
2022-11-17T04:02:42.030Z,7.22
2022-11-17T04:05:09.454Z,7.31
2022-11-17T04:07:40.206Z,7.32
2022-11-17T04:10:09.395Z,7.28
2022-11-17T04:12:54.099Z,7.27
2022-11-17T04:15:52.227Z,7.29
2022-11-17T04:18:19.759Z,7.34
2022-11-17T04:20:50.395Z,7.36
2022-11-17T04:23:16.768Z,7.30
2022-11-17T04:26:04.063Z,7.28
2022-11-17T04:28:38.300Z,7.25
2022-11-17T04:31:22.832Z,7.34
2022-11-17T04:33:55.177Z,7.28
2022-11-17T04:36:24.964Z,7.33
2022-11-17T04:38:53.764Z,7.28
2022-11-17T04:41:40.601Z,7.25
2022-11-17T04:44:08.599Z,7.34
2022-11-17T04:46:36.263Z,7.31
2022-11-17T04:49:03.990Z,7.38
2022-11-17T04:51:31.310Z,7.43
2022-11-17T04:53:57.895Z,7.38
2022-11-17T04:56:25.349Z,7.37
2022-11-17T04:58:52.214Z,7.34
2022-11-17T05:01:19.242Z,7.37
2022-11-17T05:03:46.924Z,7.39
2022-11-17T05:06:17.017Z,7.30
2022-11-17T05:08:44.345Z,7.30
2022-11-17T05:11:31.122Z,7.39
2022-11-17T05:13:58.247Z,7.44
2022-11-17T05:16:43.722Z,7.41
2022-11-17T05:19:13.971Z,7.45
2022-11-17T05:21:40.587Z,7.39
2022-11-17T05:24:08.583Z,7.34
2022-11-17T05:26:36.636Z,7.45
2022-11-17T05:29:05.981Z,7.36
2022-11-17T05:31:32.769Z,7.36
2022-11-17T05:33:59.912Z,7.37
2022-11-17T05:36:27.591Z,7.47
2022-11-17T05:38:55.006Z,7.44
2022-11-17T05:41:22.410Z,7.44
2022-11-17T05:43:50.411Z,7.42
2022-11-17T05:46:20.891Z,7.45
2022-11-17T05:48:49.943Z,7.47
2022-11-17T05:51:22.456Z,7.49
2022-11-17T05:53:49.259Z,7.40
2022-11-17T05:56:54.968Z,7.49
2022-11-17T05:59:28.384Z,7.54
2022-11-17T06:02:06.755Z,7.51
2022-11-17T06:04:33.256Z,7.50
2022-11-17T06:07:01.068Z,7.52
2022-11-17T06:09:31.240Z,7.49
2022-11-17T06:12:02.453Z,7.53
2022-11-17T06:14:31.771Z,7.53
2022-11-17T06:17:03.310Z,7.43
2022-11-17T06:19:44.055Z,7.46
2022-11-17T06:22:12.674Z,7.47
2022-11-17T06:24:41.748Z,7.45
2022-11-17T06:27:08.264Z,7.50
2022-11-17T06:29:37.148Z,7.53
2022-11-17T06:32:07.427Z,7.49
2022-11-17T06:34:34.925Z,7.49
2022-11-17T06:37:01.323Z,7.44
2022-11-17T06:39:27.756Z,7.56
2022-11-17T06:41:54.162Z,7.50
2022-11-17T06:44:20.517Z,7.51
2022-11-17T06:46:49.201Z,7.46
2022-11-17T06:49:15.854Z,7.54
2022-11-17T06:51:45.165Z,7.61
2022-11-17T06:54:14.409Z,7.63
2022-11-17T06:56:40.901Z,7.62
2022-11-17T06:59:07.271Z,7.58
2022-11-17T07:01:33.621Z,7.60
2022-11-17T07:04:00.001Z,7.64
2022-11-17T07:06:26.349Z,7.66
2022-11-17T07:08:52.784Z,7.69
2022-11-17T07:11:19.602Z,7.69
2022-11-17T07:13:46.300Z,7.71
2022-11-17T07:16:20.052Z,7.66
2022-11-17T07:18:49.910Z,7.71
2022-11-17T07:21:16.282Z,7.77
2022-11-17T07:23:44.698Z,7.78
2022-11-17T07:26:11.148Z,7.83
2022-11-17T07:28:37.920Z,7.77
2022-11-17T07:31:06.853Z,7.80
2022-11-17T07:33:33.353Z,7.76
2022-11-17T07:36:09.642Z,7.76
2022-11-17T07:38:37.642Z,7.69
2022-11-17T07:41:05.367Z,7.87
2022-11-17T07:43:33.799Z,7.84
2022-11-17T07:46:13.567Z,7.82
2022-11-17T07:48:41.073Z,7.81
2022-11-17T07:51:07.439Z,7.86
2022-11-17T07:53:35.236Z,7.84
2022-11-17T07:56:06.112Z,7.94
2022-11-17T07:58:33.057Z,7.89
2022-11-17T08:01:00.203Z,7.99
2022-11-17T08:03:26.691Z,8.04
2022-11-17T08:05:53.376Z,7.92
2022-11-17T08:08:19.774Z,8.01
2022-11-17T08:10:46.130Z,8.06
2022-11-17T08:13:14.067Z,8.00
2022-11-17T08:15:40.432Z,7.98
2022-11-17T08:18:06.790Z,8.06
2022-11-17T08:20:33.766Z,8.00
2022-11-17T08:23:00.158Z,8.10
2022-11-17T08:25:27.644Z,8.01
2022-11-17T08:27:55.924Z,8.06
2022-11-17T08:30:24.280Z,8.01
2022-11-17T08:32:52.497Z,8.00
2022-11-17T08:35:24.887Z,8.08
2022-11-17T08:37:51.640Z,8.24
2022-11-17T08:40:19.287Z,8.25
2022-11-17T08:42:46.350Z,8.39
2022-11-17T08:45:13.082Z,8.40
2022-11-17T08:47:39.988Z,8.42
2022-11-17T08:50:07.006Z,8.49
2022-11-17T08:52:33.459Z,8.48
2022-11-17T08:54:59.944Z,8.56
2022-11-17T08:57:26.481Z,8.45
2022-11-17T08:59:52.884Z,8.50
2022-11-17T09:02:19.222Z,8.50
2022-11-17T09:04:46.510Z,8.50
2022-11-17T09:07:13.203Z,8.65
2022-11-17T09:09:40.314Z,8.72
2022-11-17T09:12:06.827Z,8.65
2022-11-17T09:14:33.565Z,8.69
2022-11-17T09:16:59.925Z,8.72
2022-11-17T09:19:26.785Z,8.75
2022-11-17T09:21:53.159Z,8.77
2022-11-17T09:24:19.577Z,8.74
2022-11-17T09:26:46.001Z,8.73
2022-11-17T09:29:12.384Z,8.90
2022-11-17T09:31:38.829Z,8.87
2022-11-17T09:34:06.185Z,8.99
2022-11-17T09:36:33.738Z,8.87
2022-11-17T09:39:00.286Z,9.02
2022-11-17T09:41:52.144Z,8.86
2022-11-17T09:44:41.992Z,8.99
2022-11-17T09:47:19.175Z,8.98
2022-11-17T09:50:04.022Z,8.97
2022-11-17T09:52:48.579Z,8.95
2022-11-17T09:55:40.812Z,8.93
2022-11-17T09:58:13.173Z,9.02
2022-11-17T10:00:43.656Z,9.00
2022-11-17T10:03:22.668Z,9.07
2022-11-17T10:05:49.691Z,9.24
2022-11-17T10:08:19.231Z,9.31
2022-11-17T10:10:48.209Z,9.30
2022-11-17T10:13:25.114Z,9.31
2022-11-17T10:16:02.678Z,9.29
2022-11-17T10:18:37.555Z,9.20
2022-11-17T10:21:06.734Z,9.09
2022-11-17T10:23:47.120Z,8.94
2022-11-17T10:26:15.816Z,8.93
2022-11-17T10:28:42.211Z,8.83
2022-11-17T10:31:14.051Z,8.87
2022-11-17T10:33:49.422Z,8.87
2022-11-17T10:36:33.459Z,8.91
2022-11-17T10:39:00.816Z,8.89
2022-11-17T10:41:30.619Z,8.84
2022-11-17T10:44:12.013Z,8.88
2022-11-17T10:47:02.673Z,8.96
2022-11-17T10:49:38.419Z,8.94
2022-11-17T10:52:10.958Z,9.00
2022-11-17T10:54:38.151Z,8.98
2022-11-17T10:57:12.397Z,9.01
2022-11-17T10:59:45.575Z,8.99
2022-11-17T11:02:33.142Z,9.10
2022-11-17T11:05:10.365Z,9.15
2022-11-17T11:07:37.050Z,9.05
2022-11-17T11:10:12.677Z,9.08
2022-11-17T11:12:47.588Z,9.09
2022-11-17T11:15:21.760Z,9.03
2022-11-17T11:17:48.347Z,9.03
2022-11-17T11:20:18.306Z,8.98
2022-11-17T11:23:00.644Z,9.03
2022-11-17T11:25:50.505Z,8.92
2022-11-17T11:28:51.314Z,9.04
2022-11-17T11:31:48.511Z,9.04
2022-11-17T11:34:34.410Z,9.14
2022-11-17T11:37:11.254Z,9.29
2022-11-17T11:39:40.547Z,9.22
2022-11-17T11:42:25.672Z,9.28
2022-11-17T11:45:18.050Z,9.28
2022-11-17T11:48:12.678Z,9.20
2022-11-17T11:50:57.819Z,9.16
2022-11-17T11:53:52.171Z,9.29
2022-11-17T11:56:30.476Z,9.43
2022-11-17T11:59:19.301Z,9.40
2022-11-17T12:01:55.904Z,9.35
2022-11-17T12:04:33.607Z,9.44
2022-11-17T12:07:14.101Z,9.35
2022-11-17T12:09:46.331Z,9.44
2022-11-17T12:12:16.099Z,9.40
2022-11-17T12:15:08.304Z,9.39
2022-11-17T12:17:35.024Z,9.25
2022-11-17T12:20:10.548Z,9.29
2022-11-17T12:22:37.272Z,9.42
2022-11-17T12:25:14.868Z,9.28
2022-11-17T12:27:45.468Z,9.24
2022-11-17T12:30:30.313Z,9.29
2022-11-17T12:32:58.526Z,9.34
2022-11-17T12:35:29.182Z,9.32
2022-11-17T12:38:15.156Z,9.35
2022-11-17T12:40:44.270Z,9.35
2022-11-17T12:43:16.729Z,9.43
2022-11-17T12:45:55.251Z,9.65
2022-11-17T12:48:33.804Z,9.47
2022-11-17T12:51:15.086Z,9.51
2022-11-17T12:54:03.411Z,9.41
2022-11-17T12:56:38.896Z,9.51
2022-11-17T12:59:14.282Z,9.48
2022-11-17T13:01:43.568Z,9.43
2022-11-17T13:04:21.198Z,9.43
2022-11-17T13:07:16.041Z,9.35
2022-11-17T13:09:42.447Z,9.31
2022-11-17T13:12:11.055Z,9.44
2022-11-17T13:14:58.551Z,9.37
2022-11-17T13:17:30.298Z,9.37
2022-11-17T13:20:24.606Z,9.38
2022-11-17T13:23:06.930Z,9.30
2022-11-17T13:25:34.249Z,9.17
2022-11-17T13:28:04.878Z,9.21
2022-11-17T13:30:32.912Z,9.32
2022-11-17T13:33:01.668Z,9.28
2022-11-17T13:35:33.851Z,9.25
2022-11-17T13:38:04.006Z,9.32
2022-11-17T13:40:31.771Z,9.27
2022-11-17T13:42:58.768Z,9.28
2022-11-17T13:45:25.363Z,9.24
2022-11-17T13:47:53.623Z,9.34
2022-11-17T13:50:20.672Z,9.26
2022-11-17T13:52:51.499Z,9.26
2022-11-17T13:55:20.278Z,9.26
2022-11-17T13:57:56.954Z,9.20
2022-11-17T14:00:23.684Z,9.20
2022-11-17T14:02:58.461Z,9.32
2022-11-17T14:05:26.330Z,9.24
2022-11-17T14:07:54.813Z,9.14
2022-11-17T14:10:21.170Z,9.15
2022-11-17T14:12:53.978Z,9.09
2022-11-17T14:15:27.235Z,9.13
2022-11-17T14:17:56.342Z,9.15
2022-11-17T14:20:25.721Z,9.21
2022-11-17T14:23:15.370Z,9.16
2022-11-17T14:25:44.238Z,9.33
2022-11-17T14:28:15.485Z,9.18
2022-11-17T14:30:42.363Z,9.15
2022-11-17T14:33:13.380Z,9.13
2022-11-17T14:35:40.253Z,9.12
2022-11-17T14:38:10.056Z,9.10
2022-11-17T14:40:36.493Z,9.09
2022-11-17T14:43:02.852Z,9.07
2022-11-17T14:45:29.754Z,8.99
2022-11-17T14:47:56.457Z,8.97
2022-11-17T14:50:23.017Z,8.93
2022-11-17T14:52:49.357Z,9.10
2022-11-17T14:55:15.741Z,9.06
2022-11-17T14:57:42.727Z,9.16
2022-11-17T15:00:13.405Z,9.06
2022-11-17T15:02:42.643Z,8.86
2022-11-17T15:05:09.508Z,8.88
2022-11-17T15:07:35.959Z,8.82
2022-11-17T15:10:03.576Z,8.81
2022-11-17T15:12:29.940Z,8.74
2022-11-17T15:14:59.302Z,8.74
2022-11-17T15:17:27.493Z,8.82
2022-11-17T15:19:54.717Z,8.63
2022-11-17T15:22:21.323Z,8.61
2022-11-17T15:24:47.811Z,8.52
2022-11-17T15:27:14.524Z,8.44
2022-11-17T15:29:40.874Z,8.35
2022-11-17T15:32:07.691Z,8.24
2022-11-17T15:34:35.665Z,8.27
2022-11-17T15:37:02.018Z,8.16
2022-11-17T15:39:28.478Z,8.22
2022-11-17T15:41:54.917Z,8.13
2022-11-17T15:44:21.273Z,8.11
2022-11-17T15:46:48.165Z,8.03
2022-11-17T15:49:15.265Z,8.01
2022-11-17T15:51:41.890Z,7.89
2022-11-17T15:54:15.108Z,7.92
2022-11-17T15:56:44.711Z,7.85
2022-11-17T15:59:11.150Z,7.81
2022-11-17T16:01:39.255Z,7.85
2022-11-17T16:04:11.332Z,7.81
2022-11-17T16:06:41.097Z,7.72
2022-11-17T16:09:08.374Z,7.74
2022-11-17T16:11:35.457Z,7.64
2022-11-17T16:14:02.622Z,7.65
2022-11-17T16:16:32.027Z,7.60
2022-11-17T16:18:58.767Z,7.52
2022-11-17T16:21:25.482Z,7.50
2022-11-17T16:23:56.296Z,7.43
2022-11-17T16:26:24.665Z,7.32
2022-11-17T16:28:59.531Z,7.25
2022-11-17T16:31:28.780Z,7.24
2022-11-17T16:34:04.357Z,7.25
2022-11-17T16:36:36.525Z,7.15
2022-11-17T16:39:05.159Z,7.16
2022-11-17T16:41:34.403Z,7.11
2022-11-17T16:44:01.709Z,7.13
2022-11-17T16:46:30.616Z,7.12
2022-11-17T16:49:01.112Z,7.03
2022-11-17T16:51:27.505Z,7.04
2022-11-17T16:54:01.206Z,6.94
2022-11-17T16:56:27.697Z,6.98
2022-11-17T16:58:54.708Z,6.91
2022-11-17T17:01:24.313Z,6.81
2022-11-17T17:03:56.535Z,6.84
2022-11-17T17:06:23.618Z,6.78
2022-11-17T17:08:58.252Z,6.80
2022-11-17T17:11:25.830Z,6.75
2022-11-17T17:13:52.178Z,6.61
2022-11-17T17:16:19.570Z,6.59
2022-11-17T17:18:46.316Z,6.56
2022-11-17T17:21:18.536Z,6.41
2022-11-17T17:23:45.594Z,6.36
2022-11-17T17:26:14.235Z,6.33
2022-11-17T17:28:41.082Z,6.27
2022-11-17T17:31:08.031Z,6.20
2022-11-17T17:33:36.266Z,6.01
2022-11-17T17:36:03.473Z,5.95
2022-11-17T17:38:29.898Z,5.87
2022-11-17T17:40:56.539Z,5.84
2022-11-17T17:43:22.935Z,5.67
2022-11-17T17:45:49.296Z,5.74
2022-11-17T17:48:15.650Z,5.71
2022-11-17T17:50:42.025Z,5.67
2022-11-17T17:53:08.358Z,5.74
2022-11-17T17:55:34.954Z,5.66
2022-11-17T17:58:01.373Z,5.53
2022-11-17T18:00:27.717Z,5.59
2022-11-17T18:02:54.407Z,5.52
2022-11-17T18:05:22.510Z,5.46
2022-11-17T18:07:49.511Z,5.47
2022-11-17T18:10:16.701Z,5.49
2022-11-17T18:12:43.054Z,5.39
2022-11-17T18:15:10.280Z,5.43
2022-11-17T18:17:36.645Z,5.30
2022-11-17T18:20:03.825Z,5.30
2022-11-17T18:22:30.744Z,5.42
2022-11-17T18:24:58.404Z,5.33
2022-11-17T18:27:24.912Z,5.28
2022-11-17T18:29:51.287Z,5.33
2022-11-17T18:32:17.659Z,5.40
2022-11-17T18:34:44.031Z,5.33
2022-11-17T18:37:10.409Z,5.37
2022-11-17T18:39:38.139Z,5.45
2022-11-17T18:42:04.603Z,5.56
2022-11-17T18:44:31.125Z,5.62
2022-11-17T18:47:02.565Z,5.80
2022-11-17T18:49:30.457Z,5.77
2022-11-17T18:51:56.810Z,5.85
2022-11-17T18:54:23.197Z,5.94
2022-11-17T18:56:50.459Z,5.91
2022-11-17T18:59:18.331Z,6.05
2022-11-17T19:01:45.089Z,6.13
2022-11-17T19:04:13.478Z,6.22
2022-11-17T19:06:39.873Z,6.26
2022-11-17T19:09:06.728Z,6.29
2022-11-17T19:11:34.467Z,6.27
2022-11-17T19:14:02.254Z,6.34
2022-11-17T19:16:29.162Z,6.39
2022-11-17T19:18:56.460Z,6.44
2022-11-17T19:21:33.577Z,6.41
2022-11-17T19:24:04.208Z,6.46
2022-11-17T19:26:35.818Z,6.54
2022-11-17T19:29:05.596Z,6.63
2022-11-17T19:31:32.861Z,6.65
2022-11-17T19:33:59.590Z,6.61
2022-11-17T19:36:30.872Z,6.67
2022-11-17T19:38:59.402Z,6.58
2022-11-17T19:41:27.969Z,6.60
2022-11-17T19:43:56.081Z,6.73
2022-11-17T19:46:24.328Z,6.70
2022-11-17T19:48:51.045Z,6.66
2022-11-17T19:51:20.322Z,6.60
2022-11-17T19:53:54.513Z,6.65
2022-11-17T19:56:21.942Z,6.69
2022-11-17T19:58:50.711Z,6.60
2022-11-17T20:01:19.652Z,6.62
2022-11-17T20:03:46.828Z,6.66
2022-11-17T20:06:17.318Z,6.71
2022-11-17T20:08:43.919Z,6.80
2022-11-17T20:11:16.544Z,6.72
2022-11-17T20:13:44.112Z,6.60
2022-11-17T20:16:16.154Z,6.50
2022-11-17T20:18:43.889Z,6.46
2022-11-17T20:21:11.255Z,6.38
2022-11-17T20:23:39.178Z,6.36
2022-11-17T20:26:07.521Z,6.32
2022-11-17T20:28:35.878Z,6.33
2022-11-17T20:31:09.878Z,6.22
2022-11-17T20:33:40.980Z,6.20
2022-11-17T20:36:08.760Z,6.16
2022-11-17T20:38:36.067Z,6.25
2022-11-17T20:41:03.474Z,6.20
2022-11-17T20:43:29.893Z,6.23
2022-11-17T20:45:57.315Z,6.20
2022-11-17T20:48:24.638Z,6.18
2022-11-17T20:51:06.410Z,6.14
2022-11-17T20:53:33.546Z,6.18
2022-11-17T20:56:02.250Z,6.10
2022-11-17T20:58:29.639Z,6.13
2022-11-17T21:00:56.471Z,6.05
2022-11-17T21:03:23.779Z,6.03
2022-11-17T21:05:59.226Z,5.93
2022-11-17T21:08:29.079Z,5.92
2022-11-17T21:11:03.580Z,5.95
2022-11-17T21:13:32.804Z,5.94
2022-11-17T21:16:10.036Z,6.04
2022-11-17T21:18:38.413Z,5.99
2022-11-17T21:21:08.757Z,5.98
2022-11-17T21:23:37.047Z,5.94
2022-11-17T21:26:05.674Z,5.96
2022-11-17T21:28:32.213Z,5.93
2022-11-17T21:31:07.626Z,5.98
2022-11-17T21:33:35.016Z,5.92
2022-11-17T21:36:05.539Z,5.95
2022-11-17T21:38:32.191Z,5.97
2022-11-17T21:41:23.207Z,6.03
2022-11-17T21:43:51.539Z,6.03
2022-11-17T21:46:22.786Z,6.14
2022-11-17T21:48:50.420Z,6.18
2022-11-17T21:51:25.185Z,6.21
2022-11-17T21:53:56.047Z,6.17
2022-11-17T21:56:25.535Z,6.17
2022-11-17T21:59:02.334Z,6.34
2022-11-17T22:01:30.101Z,6.33
2022-11-17T22:03:56.679Z,6.36
2022-11-17T22:06:24.453Z,6.33
2022-11-17T22:08:51.254Z,6.29
2022-11-17T22:11:40.729Z,6.32
2022-11-17T22:14:14.874Z,6.37
2022-11-17T22:16:43.680Z,6.32
2022-11-17T22:19:11.920Z,6.44
2022-11-17T22:21:39.404Z,6.40
2022-11-17T22:24:07.626Z,6.39
2022-11-17T22:26:38.276Z,6.42
2022-11-17T22:29:13.931Z,6.38
2022-11-17T22:31:40.818Z,6.35
2022-11-17T22:34:07.229Z,6.24
2022-11-17T22:36:33.595Z,6.31
2022-11-17T22:38:59.970Z,6.26
2022-11-17T22:41:26.392Z,6.15
2022-11-17T22:43:54.733Z,6.23
2022-11-17T22:46:23.053Z,6.13
2022-11-17T22:48:49.616Z,6.10
2022-11-17T22:51:36.606Z,6.04
2022-11-17T22:54:03.886Z,5.96
2022-11-17T22:56:31.675Z,5.91
2022-11-17T22:58:59.798Z,5.85
2022-11-17T23:01:26.822Z,5.80
2022-11-17T23:03:53.275Z,5.81
2022-11-17T23:06:19.748Z,5.88
2022-11-17T23:08:46.143Z,5.67
2022-11-17T23:11:36.059Z,5.52
2022-11-17T23:13:58.892Z,5.62
2022-11-17T23:16:25.536Z,5.43
2022-11-17T23:18:53.866Z,5.37
2022-11-17T23:21:20.293Z,5.40
2022-11-17T23:23:46.711Z,5.41
2022-11-17T23:26:13.325Z,5.37
2022-11-17T23:28:41.656Z,5.37
2022-11-17T23:31:13.499Z,5.41
2022-11-17T23:33:42.883Z,5.58
2022-11-17T23:36:20.685Z,5.74
2022-11-17T23:38:47.753Z,5.71
2022-11-17T23:41:15.772Z,5.81
2022-11-17T23:43:42.601Z,5.83
2022-11-17T23:46:17.852Z,5.77
2022-11-17T23:48:44.733Z,5.85
2022-11-17T23:51:16.633Z,5.84
2022-11-17T23:53:43.164Z,6.00
2022-11-17T23:56:10.738Z,6.08
2022-11-17T23:58:38.104Z,6.21
